sensor_id;sensor_type;location;lat;lon;timestamp;P1;durP1;ratioP1;P2;durP2;ratioP2
19231;SDS011;9750;48.730;10.294;2023-08-12T00:01:01;7.00;;;5.75;;
19231;SDS011;9750;48.730;10.294;2023-08-12T00:03:27;5.88;;;5.30;;
19231;SDS011;9750;48.730;10.294;2023-08-12T00:05:54;6.22;;;4.70;;
19231;SDS011;9750;48.730;10.294;2023-08-12T00:08:22;6.13;;;4.80;;
19231;SDS011;9750;48.730;10.294;2023-08-12T00:10:49;5.32;;;4.80;;
19231;SDS011;9750;48.730;10.294;2023-08-12T00:13:18;5.88;;;5.20;;
19231;SDS011;9750;48.730;10.294;2023-08-12T00:15:46;6.78;;;5.05;;
19231;SDS011;9750;48.730;10.294;2023-08-12T00:18:13;7.32;;;4.68;;
19231;SDS011;9750;48.730;10.294;2023-08-12T00:20:42;6.00;;;4.57;;
19231;SDS011;9750;48.730;10.294;2023-08-12T00:23:09;5.95;;;4.70;;
19231;SDS011;9750;48.730;10.294;2023-08-12T00:25:36;7.25;;;5.07;;
19231;SDS011;9750;48.730;10.294;2023-08-12T00:28:04;6.25;;;5.00;;
19231;SDS011;9750;48.730;10.294;2023-08-12T00:30:33;5.32;;;4.90;;
19231;SDS011;9750;48.730;10.294;2023-08-12T00:33:00;6.25;;;5.18;;
19231;SDS011;9750;48.730;10.294;2023-08-12T00:35:27;5.65;;;4.82;;
19231;SDS011;9750;48.730;10.294;2023-08-12T00:37:55;7.50;;;5.70;;
19231;SDS011;9750;48.730;10.294;2023-08-12T00:40:22;5.15;;;4.65;;
19231;SDS011;9750;48.730;10.294;2023-08-12T00:42:49;6.53;;;4.13;;
19231;SDS011;9750;48.730;10.294;2023-08-12T00:45:17;7.68;;;4.55;;
19231;SDS011;9750;48.730;10.294;2023-08-12T00:50:54;6.03;;;3.83;;
19231;SDS011;9750;48.730;10.294;2023-08-12T00:53:21;5.20;;;4.63;;
19231;SDS011;9750;48.730;10.294;2023-08-12T00:55:48;5.72;;;3.97;;
19231;SDS011;9750;48.730;10.294;2023-08-12T00:58:15;5.03;;;4.50;;
19231;SDS011;9750;48.730;10.294;2023-08-12T01:00:43;5.25;;;4.07;;
19231;SDS011;9750;48.730;10.294;2023-08-12T01:03:11;5.15;;;4.28;;
19231;SDS011;9750;48.730;10.294;2023-08-12T01:05:38;7.05;;;4.60;;
19231;SDS011;9750;48.730;10.294;2023-08-12T01:11:29;5.37;;;4.40;;
19231;SDS011;9750;48.730;10.294;2023-08-12T01:14:04;5.47;;;4.43;;
19231;SDS011;9750;48.730;10.294;2023-08-12T01:16:40;6.00;;;4.60;;
19231;SDS011;9750;48.730;10.294;2023-08-12T01:19:19;4.77;;;4.37;;
19231;SDS011;9750;48.730;10.294;2023-08-12T01:21:53;7.87;;;4.00;;
19231;SDS011;9750;48.730;10.294;2023-08-12T01:24:25;5.33;;;4.83;;
19231;SDS011;9750;48.730;10.294;2023-08-12T01:26:53;5.03;;;4.43;;
19231;SDS011;9750;48.730;10.294;2023-08-12T01:29:20;6.55;;;4.68;;
19231;SDS011;9750;48.730;10.294;2023-08-12T01:31:49;5.77;;;4.53;;
19231;SDS011;9750;48.730;10.294;2023-08-12T01:34:24;5.00;;;4.50;;
19231;SDS011;9750;48.730;10.294;2023-08-12T01:36:56;7.33;;;4.60;;
19231;SDS011;9750;48.730;10.294;2023-08-12T01:39:27;4.13;;;3.83;;
19231;SDS011;9750;48.730;10.294;2023-08-12T01:41:56;5.47;;;4.40;;
19231;SDS011;9750;48.730;10.294;2023-08-12T01:44:24;5.80;;;4.50;;
19231;SDS011;9750;48.730;10.294;2023-08-12T01:46:51;4.60;;;4.20;;
19231;SDS011;9750;48.730;10.294;2023-08-12T01:49:19;5.60;;;4.30;;
19231;SDS011;9750;48.730;10.294;2023-08-12T01:51:48;5.50;;;4.33;;
19231;SDS011;9750;48.730;10.294;2023-08-12T01:54:15;6.00;;;4.30;;
19231;SDS011;9750;48.730;10.294;2023-08-12T01:56:44;5.68;;;4.53;;
19231;SDS011;9750;48.730;10.294;2023-08-12T01:59:11;7.70;;;4.50;;
19231;SDS011;9750;48.730;10.294;2023-08-12T02:01:38;4.97;;;4.47;;
19231;SDS011;9750;48.730;10.294;2023-08-12T02:04:06;5.03;;;4.43;;
19231;SDS011;9750;48.730;10.294;2023-08-12T02:06:41;6.27;;;4.53;;
19231;SDS011;9750;48.730;10.294;2023-08-12T02:09:08;5.10;;;4.60;;
19231;SDS011;9750;48.730;10.294;2023-08-12T02:11:35;6.63;;;4.70;;
19231;SDS011;9750;48.730;10.294;2023-08-12T02:14:04;5.87;;;5.20;;
19231;SDS011;9750;48.730;10.294;2023-08-12T02:19:54;5.63;;;4.37;;
19231;SDS011;9750;48.730;10.294;2023-08-12T02:22:21;5.30;;;4.23;;
19231;SDS011;9750;48.730;10.294;2023-08-12T02:24:49;5.73;;;4.60;;
19231;SDS011;9750;48.730;10.294;2023-08-12T02:27:16;5.50;;;4.43;;
19231;SDS011;9750;48.730;10.294;2023-08-12T02:29:45;5.50;;;4.40;;
19231;SDS011;9750;48.730;10.294;2023-08-12T02:32:12;5.30;;;4.80;;
19231;SDS011;9750;48.730;10.294;2023-08-12T02:34:39;5.30;;;4.80;;
19231;SDS011;9750;48.730;10.294;2023-08-12T02:37:06;5.73;;;5.13;;
19231;SDS011;9750;48.730;10.294;2023-08-12T02:39:34;5.27;;;4.80;;
19231;SDS011;9750;48.730;10.294;2023-08-12T02:42:01;6.23;;;5.00;;
19231;SDS011;9750;48.730;10.294;2023-08-12T02:44:29;6.53;;;5.00;;
19231;SDS011;9750;48.730;10.294;2023-08-12T02:46:57;6.70;;;5.13;;
19231;SDS011;9750;48.730;10.294;2023-08-12T02:49:25;6.37;;;5.07;;
19231;SDS011;9750;48.730;10.294;2023-08-12T02:51:52;5.73;;;5.13;;
19231;SDS011;9750;48.730;10.294;2023-08-12T02:54:20;4.87;;;4.47;;
19231;SDS011;9750;48.730;10.294;2023-08-12T02:56:47;6.87;;;4.93;;
19231;SDS011;9750;48.730;10.294;2023-08-12T02:59:16;5.90;;;5.30;;
19231;SDS011;9750;48.730;10.294;2023-08-12T03:01:43;9.57;;;5.07;;
19231;SDS011;9750;48.730;10.294;2023-08-12T03:04:12;6.33;;;5.10;;
19231;SDS011;9750;48.730;10.294;2023-08-12T03:06:39;6.07;;;5.47;;
19231;SDS011;9750;48.730;10.294;2023-08-12T03:09:06;6.23;;;5.40;;
19231;SDS011;9750;48.730;10.294;2023-08-12T03:11:33;6.37;;;5.13;;
19231;SDS011;9750;48.730;10.294;2023-08-12T03:14:01;7.33;;;5.30;;
19231;SDS011;9750;48.730;10.294;2023-08-12T03:16:28;5.30;;;4.80;;
19231;SDS011;9750;48.730;10.294;2023-08-12T03:18:55;7.27;;;5.53;;
19231;SDS011;9750;48.730;10.294;2023-08-12T03:21:24;5.87;;;5.33;;
19231;SDS011;9750;48.730;10.294;2023-08-12T03:23:51;8.00;;;5.07;;
19231;SDS011;9750;48.730;10.294;2023-08-12T03:26:19;5.73;;;5.10;;
19231;SDS011;9750;48.730;10.294;2023-08-12T03:28:46;5.97;;;5.47;;
19231;SDS011;9750;48.730;10.294;2023-08-12T03:31:13;6.10;;;5.57;;
19231;SDS011;9750;48.730;10.294;2023-08-12T03:33:40;6.43;;;5.77;;
19231;SDS011;9750;48.730;10.294;2023-08-12T03:36:08;6.13;;;5.53;;
19231;SDS011;9750;48.730;10.294;2023-08-12T03:38:37;6.43;;;5.80;;
19231;SDS011;9750;48.730;10.294;2023-08-12T03:41:05;6.57;;;5.90;;
19231;SDS011;9750;48.730;10.294;2023-08-12T03:43:32;6.90;;;5.70;;
19231;SDS011;9750;48.730;10.294;2023-08-12T03:46:00;6.30;;;5.60;;
19231;SDS011;9750;48.730;10.294;2023-08-12T03:48:27;6.80;;;6.00;;
19231;SDS011;9750;48.730;10.294;2023-08-12T03:50:54;6.70;;;6.03;;
19231;SDS011;9750;48.730;10.294;2023-08-12T03:53:21;6.80;;;6.00;;
19231;SDS011;9750;48.730;10.294;2023-08-12T03:55:50;7.07;;;5.67;;
19231;SDS011;9750;48.730;10.294;2023-08-12T03:58:17;7.03;;;5.53;;
19231;SDS011;9750;48.730;10.294;2023-08-12T04:00:44;7.80;;;6.13;;
19231;SDS011;9750;48.730;10.294;2023-08-12T04:03:12;5.83;;;5.33;;
19231;SDS011;9750;48.730;10.294;2023-08-12T04:05:46;8.93;;;5.93;;
19231;SDS011;9750;48.730;10.294;2023-08-12T04:08:14;6.20;;;5.60;;
19231;SDS011;9750;48.730;10.294;2023-08-12T04:10:44;6.20;;;5.50;;
19231;SDS011;9750;48.730;10.294;2023-08-12T04:13:14;6.13;;;5.63;;
19231;SDS011;9750;48.730;10.294;2023-08-12T04:15:41;6.90;;;5.70;;
19231;SDS011;9750;48.730;10.294;2023-08-12T04:18:09;7.70;;;5.90;;
19231;SDS011;9750;48.730;10.294;2023-08-12T04:20:36;6.37;;;5.47;;
19231;SDS011;9750;48.730;10.294;2023-08-12T04:23:04;7.57;;;5.73;;
19231;SDS011;9750;48.730;10.294;2023-08-12T04:25:32;6.60;;;5.90;;
19231;SDS011;9750;48.730;10.294;2023-08-12T04:27:59;6.37;;;5.70;;
19231;SDS011;9750;48.730;10.294;2023-08-12T04:30:28;6.90;;;5.90;;
19231;SDS011;9750;48.730;10.294;2023-08-12T04:32:55;8.50;;;6.50;;
19231;SDS011;9750;48.730;10.294;2023-08-12T04:35:22;9.13;;;5.53;;
19231;SDS011;9750;48.730;10.294;2023-08-12T04:37:50;6.30;;;5.70;;
19231;SDS011;9750;48.730;10.294;2023-08-12T04:40:17;8.33;;;6.23;;
19231;SDS011;9750;48.730;10.294;2023-08-12T04:42:44;6.80;;;6.20;;
19231;SDS011;9750;48.730;10.294;2023-08-12T04:45:11;6.97;;;6.27;;
19231;SDS011;9750;48.730;10.294;2023-08-12T04:47:40;7.77;;;6.93;;
19231;SDS011;9750;48.730;10.294;2023-08-12T04:50:07;7.73;;;7.03;;
19231;SDS011;9750;48.730;10.294;2023-08-12T04:52:35;10.73;;;7.30;;
19231;SDS011;9750;48.730;10.294;2023-08-12T04:55:02;8.30;;;7.00;;
19231;SDS011;9750;48.730;10.294;2023-08-12T05:00:45;8.87;;;8.07;;
19231;SDS011;9750;48.730;10.294;2023-08-12T05:03:13;9.77;;;7.87;;
19231;SDS011;9750;48.730;10.294;2023-08-12T05:05:40;9.27;;;8.47;;
19231;SDS011;9750;48.730;10.294;2023-08-12T05:08:08;8.83;;;7.90;;
19231;SDS011;9750;48.730;10.294;2023-08-12T05:10:35;9.70;;;8.00;;
19231;SDS011;9750;48.730;10.294;2023-08-12T05:13:03;12.53;;;7.63;;
19231;SDS011;9750;48.730;10.294;2023-08-12T05:15:30;8.10;;;7.30;;
19231;SDS011;9750;48.730;10.294;2023-08-12T05:21:21;8.37;;;6.87;;
19231;SDS011;9750;48.730;10.294;2023-08-12T05:23:48;8.53;;;7.63;;
19231;SDS011;9750;48.730;10.294;2023-08-12T05:26:16;8.60;;;7.80;;
19231;SDS011;9750;48.730;10.294;2023-08-12T05:28:43;7.77;;;7.07;;
19231;SDS011;9750;48.730;10.294;2023-08-12T05:31:10;7.63;;;6.93;;
19231;SDS011;9750;48.730;10.294;2023-08-12T05:33:37;7.83;;;6.23;;
19231;SDS011;9750;48.730;10.294;2023-08-12T05:36:05;6.67;;;5.97;;
19231;SDS011;9750;48.730;10.294;2023-08-12T05:38:33;7.93;;;6.40;;
19231;SDS011;9750;48.730;10.294;2023-08-12T05:41:00;7.43;;;6.13;;
19231;SDS011;9750;48.730;10.294;2023-08-12T05:43:29;6.13;;;5.63;;
19231;SDS011;9750;48.730;10.294;2023-08-12T05:45:56;6.13;;;5.53;;
19231;SDS011;9750;48.730;10.294;2023-08-12T05:48:37;7.03;;;6.43;;
19231;SDS011;9750;48.730;10.294;2023-08-12T05:51:04;7.03;;;6.30;;
19231;SDS011;9750;48.730;10.294;2023-08-12T05:53:32;7.70;;;6.57;;
19231;SDS011;9750;48.730;10.294;2023-08-12T05:56:00;6.73;;;6.13;;
19231;SDS011;9750;48.730;10.294;2023-08-12T05:58:28;6.77;;;6.10;;
19231;SDS011;9750;48.730;10.294;2023-08-12T06:00:55;6.40;;;5.90;;
19231;SDS011;9750;48.730;10.294;2023-08-12T06:03:22;7.30;;;6.60;;
19231;SDS011;9750;48.730;10.294;2023-08-12T06:05:49;7.00;;;6.23;;
19231;SDS011;9750;48.730;10.294;2023-08-12T06:11:34;7.17;;;6.57;;
19231;SDS011;9750;48.730;10.294;2023-08-12T06:14:02;9.67;;;6.37;;
19231;SDS011;9750;48.730;10.294;2023-08-12T06:16:29;7.17;;;6.43;;
19231;SDS011;9750;48.730;10.294;2023-08-12T06:18:56;7.27;;;6.57;;
19231;SDS011;9750;48.730;10.294;2023-08-12T06:21:23;7.68;;;6.43;;
19231;SDS011;9750;48.730;10.294;2023-08-12T06:23:50;11.30;;;6.65;;
19231;SDS011;9750;48.730;10.294;2023-08-12T06:26:18;8.57;;;6.10;;
19231;SDS011;9750;48.730;10.294;2023-08-12T06:28:46;7.00;;;6.20;;
19231;SDS011;9750;48.730;10.294;2023-08-12T06:31:14;6.20;;;5.40;;
19231;SDS011;9750;48.730;10.294;2023-08-12T06:33:41;8.97;;;6.23;;
19231;SDS011;9750;48.730;10.294;2023-08-12T06:36:08;6.75;;;5.97;;
19231;SDS011;9750;48.730;10.294;2023-08-12T06:38:35;6.22;;;5.47;;
19231;SDS011;9750;48.730;10.294;2023-08-12T06:41:03;6.85;;;6.30;;
19231;SDS011;9750;48.730;10.294;2023-08-12T06:43:30;8.25;;;6.05;;
19231;SDS011;9750;48.730;10.294;2023-08-12T06:45:59;6.68;;;5.95;;
19231;SDS011;9750;48.730;10.294;2023-08-12T06:48:26;7.20;;;5.80;;
19231;SDS011;9750;48.730;10.294;2023-08-12T06:50:53;6.65;;;6.03;;
19231;SDS011;9750;48.730;10.294;2023-08-12T06:53:21;6.60;;;5.80;;
19231;SDS011;9750;48.730;10.294;2023-08-12T06:55:48;6.60;;;5.90;;
19231;SDS011;9750;48.730;10.294;2023-08-12T06:58:16;6.88;;;6.20;;
19231;SDS011;9750;48.730;10.294;2023-08-12T07:00:43;7.70;;;5.63;;
19231;SDS011;9750;48.730;10.294;2023-08-12T07:03:12;6.97;;;5.88;;
19231;SDS011;9750;48.730;10.294;2023-08-12T07:05:39;6.65;;;6.05;;
19231;SDS011;9750;48.730;10.294;2023-08-12T07:08:06;6.00;;;5.50;;
19231;SDS011;9750;48.730;10.294;2023-08-12T07:10:33;5.63;;;5.13;;
19231;SDS011;9750;48.730;10.294;2023-08-12T07:13:00;6.10;;;5.40;;
19231;SDS011;9750;48.730;10.294;2023-08-12T07:15:28;6.13;;;5.53;;
19231;SDS011;9750;48.730;10.294;2023-08-12T07:17:55;5.93;;;5.43;;
19231;SDS011;9750;48.730;10.294;2023-08-12T07:20:24;5.32;;;4.82;;
19231;SDS011;9750;48.730;10.294;2023-08-12T07:22:51;5.72;;;5.22;;
19231;SDS011;9750;48.730;10.294;2023-08-12T07:25:19;6.15;;;5.45;;
19231;SDS011;9750;48.730;10.294;2023-08-12T07:27:46;5.68;;;5.18;;
19231;SDS011;9750;48.730;10.294;2023-08-12T07:30:13;5.97;;;5.38;;
19231;SDS011;9750;48.730;10.294;2023-08-12T07:32:41;5.60;;;5.05;;
19231;SDS011;9750;48.730;10.294;2023-08-12T07:35:08;5.75;;;5.15;;
19231;SDS011;9750;48.730;10.294;2023-08-12T07:37:37;5.47;;;4.93;;
19231;SDS011;9750;48.730;10.294;2023-08-12T07:40:05;6.03;;;5.28;;
19231;SDS011;9750;48.730;10.294;2023-08-12T07:42:32;6.43;;;5.80;;
19231;SDS011;9750;48.730;10.294;2023-08-12T07:45:00;5.93;;;5.40;;
19231;SDS011;9750;48.730;10.294;2023-08-12T07:47:27;6.30;;;5.07;;
19231;SDS011;9750;48.730;10.294;2023-08-12T07:49:54;5.57;;;5.07;;
19231;SDS011;9750;48.730;10.294;2023-08-12T07:52:21;5.80;;;5.20;;
19231;SDS011;9750;48.730;10.294;2023-08-12T07:54:50;8.73;;;5.35;;
19231;SDS011;9750;48.730;10.294;2023-08-12T07:57:17;5.05;;;4.55;;
19231;SDS011;9750;48.730;10.294;2023-08-12T07:59:49;5.22;;;4.72;;
19231;SDS011;9750;48.730;10.294;2023-08-12T08:02:16;4.70;;;4.30;;
19231;SDS011;9750;48.730;10.294;2023-08-12T08:04:43;5.90;;;4.97;;
19231;SDS011;9750;48.730;10.294;2023-08-12T08:07:14;6.93;;;5.03;;
19231;SDS011;9750;48.730;10.294;2023-08-12T08:09:41;5.75;;;4.95;;
19231;SDS011;9750;48.730;10.294;2023-08-12T08:12:10;5.72;;;4.93;;
19231;SDS011;9750;48.730;10.294;2023-08-12T08:14:38;5.03;;;4.55;;
19231;SDS011;9750;48.730;10.294;2023-08-12T08:20:29;5.30;;;4.80;;
19231;SDS011;9750;48.730;10.294;2023-08-12T08:22:56;5.22;;;4.72;;
19231;SDS011;9750;48.730;10.294;2023-08-12T08:25:23;5.80;;;4.60;;
19231;SDS011;9750;48.730;10.294;2023-08-12T08:27:52;5.50;;;5.03;;
19231;SDS011;9750;48.730;10.294;2023-08-12T08:30:19;6.40;;;5.40;;
19231;SDS011;9750;48.730;10.294;2023-08-12T08:32:48;5.65;;;5.13;;
19231;SDS011;9750;48.730;10.294;2023-08-12T08:35:15;5.35;;;4.85;;
19231;SDS011;9750;48.730;10.294;2023-08-12T08:37:42;9.45;;;5.05;;
19231;SDS011;9750;48.730;10.294;2023-08-12T08:40:10;5.22;;;4.82;;
19231;SDS011;9750;48.730;10.294;2023-08-12T08:42:38;8.13;;;5.45;;
19231;SDS011;9750;48.730;10.294;2023-08-12T08:45:10;5.00;;;4.47;;
19231;SDS011;9750;48.730;10.294;2023-08-12T08:47:39;5.50;;;4.93;;
19231;SDS011;9750;48.730;10.294;2023-08-12T08:50:08;5.47;;;4.88;;
19231;SDS011;9750;48.730;10.294;2023-08-12T08:52:37;5.32;;;4.75;;
19231;SDS011;9750;48.730;10.294;2023-08-12T08:55:04;5.60;;;5.10;;
19231;SDS011;9750;48.730;10.294;2023-08-12T08:57:32;4.60;;;4.20;;
19231;SDS011;9750;48.730;10.294;2023-08-12T08:59:59;5.10;;;4.60;;
19231;SDS011;9750;48.730;10.294;2023-08-12T09:02:28;8.70;;;5.03;;
19231;SDS011;9750;48.730;10.294;2023-08-12T09:04:56;6.15;;;4.72;;
19231;SDS011;9750;48.730;10.294;2023-08-12T09:07:24;5.05;;;4.65;;
19231;SDS011;9750;48.730;10.294;2023-08-12T09:09:52;5.68;;;4.55;;
19231;SDS011;9750;48.730;10.294;2023-08-12T09:12:20;14.20;;;5.10;;
19231;SDS011;9750;48.730;10.294;2023-08-12T09:14:49;5.75;;;5.15;;
19231;SDS011;9750;48.730;10.294;2023-08-12T09:17:16;5.05;;;4.55;;
19231;SDS011;9750;48.730;10.294;2023-08-12T09:19:45;9.50;;;5.50;;
19231;SDS011;9750;48.730;10.294;2023-08-12T09:22:12;7.05;;;4.47;;
19231;SDS011;9750;48.730;10.294;2023-08-12T09:24:39;5.50;;;5.00;;
19231;SDS011;9750;48.730;10.294;2023-08-12T09:27:07;4.78;;;4.38;;
19231;SDS011;9750;48.730;10.294;2023-08-12T09:29:35;5.93;;;4.60;;
19231;SDS011;9750;48.730;10.294;2023-08-12T09:32:06;5.55;;;5.05;;
19231;SDS011;9750;48.730;10.294;2023-08-12T09:34:37;8.02;;;4.38;;
19231;SDS011;9750;48.730;10.294;2023-08-12T09:37:06;4.72;;;4.30;;
19231;SDS011;9750;48.730;10.294;2023-08-12T09:39:33;5.00;;;4.60;;
19231;SDS011;9750;48.730;10.294;2023-08-12T09:42:00;6.10;;;4.35;;
19231;SDS011;9750;48.730;10.294;2023-08-12T09:44:29;4.25;;;3.95;;
19231;SDS011;9750;48.730;10.294;2023-08-12T09:46:56;4.63;;;4.20;;
19231;SDS011;9750;48.730;10.294;2023-08-12T09:49:24;5.28;;;4.47;;
19231;SDS011;9750;48.730;10.294;2023-08-12T09:51:53;5.43;;;4.35;;
19231;SDS011;9750;48.730;10.294;2023-08-12T09:54:22;7.72;;;4.95;;
19231;SDS011;9750;48.730;10.294;2023-08-12T09:56:54;8.57;;;4.72;;
19231;SDS011;9750;48.730;10.294;2023-08-12T09:59:24;4.95;;;4.43;;
19231;SDS011;9750;48.730;10.294;2023-08-12T10:01:53;16.73;;;5.65;;
19231;SDS011;9750;48.730;10.294;2023-08-12T10:04:22;8.85;;;4.82;;
19231;SDS011;9750;48.730;10.294;2023-08-12T10:06:49;5.82;;;4.45;;
19231;SDS011;9750;48.730;10.294;2023-08-12T10:09:16;4.70;;;4.25;;
19231;SDS011;9750;48.730;10.294;2023-08-12T10:11:46;4.45;;;4.05;;
19231;SDS011;9750;48.730;10.294;2023-08-12T10:14:13;5.47;;;4.30;;
19231;SDS011;9750;48.730;10.294;2023-08-12T10:16:41;5.18;;;4.68;;
19231;SDS011;9750;48.730;10.294;2023-08-12T10:19:12;5.10;;;4.70;;
19231;SDS011;9750;48.730;10.294;2023-08-12T10:21:43;5.47;;;4.30;;
19231;SDS011;9750;48.730;10.294;2023-08-12T10:24:11;5.75;;;4.60;;
19231;SDS011;9750;48.730;10.294;2023-08-12T10:26:41;5.70;;;5.00;;
19231;SDS011;9750;48.730;10.294;2023-08-12T10:29:10;5.97;;;5.18;;
19231;SDS011;9750;48.730;10.294;2023-08-12T10:31:38;5.10;;;4.70;;
19231;SDS011;9750;48.730;10.294;2023-08-12T10:34:17;5.55;;;5.03;;
19231;SDS011;9750;48.730;10.294;2023-08-12T10:36:45;5.60;;;5.10;;
19231;SDS011;9750;48.730;10.294;2023-08-12T10:39:13;7.63;;;5.22;;
19231;SDS011;9750;48.730;10.294;2023-08-12T10:41:43;8.35;;;5.15;;
19231;SDS011;9750;48.730;10.294;2023-08-12T10:44:19;5.38;;;4.55;;
19231;SDS011;9750;48.730;10.294;2023-08-12T10:46:51;6.30;;;4.68;;
19231;SDS011;9750;48.730;10.294;2023-08-12T10:49:20;6.13;;;4.82;;
19231;SDS011;9750;48.730;10.294;2023-08-12T10:51:48;5.47;;;4.50;;
19231;SDS011;9750;48.730;10.294;2023-08-12T10:54:21;7.40;;;5.13;;
19231;SDS011;9750;48.730;10.294;2023-08-12T10:57:04;5.30;;;4.80;;
19231;SDS011;9750;48.730;10.294;2023-08-12T10:59:53;4.82;;;4.43;;
19231;SDS011;9750;48.730;10.294;2023-08-12T11:02:27;5.38;;;4.88;;
19231;SDS011;9750;48.730;10.294;2023-08-12T11:04:55;5.60;;;5.10;;
19231;SDS011;9750;48.730;10.294;2023-08-12T11:07:33;7.35;;;4.97;;
19231;SDS011;9750;48.730;10.294;2023-08-12T11:10:04;5.20;;;4.57;;
19231;SDS011;9750;48.730;10.294;2023-08-12T11:12:36;5.43;;;4.93;;
19231;SDS011;9750;48.730;10.294;2023-08-12T11:15:06;5.28;;;4.68;;
19231;SDS011;9750;48.730;10.294;2023-08-12T11:17:41;5.03;;;4.53;;
19231;SDS011;9750;48.730;10.294;2023-08-12T11:20:09;4.85;;;4.45;;
19231;SDS011;9750;48.730;10.294;2023-08-12T11:22:38;5.07;;;4.68;;
19231;SDS011;9750;48.730;10.294;2023-08-12T11:25:07;6.70;;;5.00;;
19231;SDS011;9750;48.730;10.294;2023-08-12T11:30:36;4.97;;;4.57;;
19231;SDS011;9750;48.730;10.294;2023-08-12T11:33:08;6.00;;;5.45;;
19231;SDS011;9750;48.730;10.294;2023-08-12T11:35:36;8.25;;;5.00;;
19231;SDS011;9750;48.730;10.294;2023-08-12T11:38:04;6.65;;;5.00;;
19231;SDS011;9750;48.730;10.294;2023-08-12T11:40:33;5.93;;;4.95;;
19231;SDS011;9750;48.730;10.294;2023-08-12T11:43:01;5.25;;;4.55;;
19231;SDS011;9750;48.730;10.294;2023-08-12T11:45:28;6.25;;;5.00;;
19231;SDS011;9750;48.730;10.294;2023-08-12T11:47:57;5.47;;;4.97;;
19231;SDS011;9750;48.730;10.294;2023-08-12T11:50:25;8.82;;;5.07;;
19231;SDS011;9750;48.730;10.294;2023-08-12T11:52:53;5.20;;;4.68;;
19231;SDS011;9750;48.730;10.294;2023-08-12T11:55:23;5.32;;;4.70;;
19231;SDS011;9750;48.730;10.294;2023-08-12T11:57:51;5.18;;;4.78;;
19231;SDS011;9750;48.730;10.294;2023-08-12T12:00:18;9.73;;;4.70;;
19231;SDS011;9750;48.730;10.294;2023-08-12T12:02:47;6.10;;;5.22;;
19231;SDS011;9750;48.730;10.294;2023-08-12T12:05:18;6.75;;;4.25;;
19231;SDS011;9750;48.730;10.294;2023-08-12T12:07:50;7.00;;;4.28;;
19231;SDS011;9750;48.730;10.294;2023-08-12T12:10:18;5.90;;;4.68;;
19231;SDS011;9750;48.730;10.294;2023-08-12T12:12:46;8.68;;;4.80;;
19231;SDS011;9750;48.730;10.294;2023-08-12T12:15:14;7.65;;;4.57;;
19231;SDS011;9750;48.730;10.294;2023-08-12T12:21:05;6.28;;;4.65;;
19231;SDS011;9750;48.730;10.294;2023-08-12T12:23:32;5.25;;;4.35;;
19231;SDS011;9750;48.730;10.294;2023-08-12T12:26:01;5.20;;;4.30;;
19231;SDS011;9750;48.730;10.294;2023-08-12T12:28:28;5.68;;;4.70;;
19231;SDS011;9750;48.730;10.294;2023-08-12T12:30:56;5.78;;;4.40;;
19231;SDS011;9750;48.730;10.294;2023-08-12T12:33:23;4.78;;;4.32;;
19231;SDS011;9750;48.730;10.294;2023-08-12T12:35:50;5.28;;;4.50;;
19231;SDS011;9750;48.730;10.294;2023-08-12T12:38:19;5.35;;;4.05;;
19231;SDS011;9750;48.730;10.294;2023-08-12T12:40:46;5.20;;;4.30;;
19231;SDS011;9750;48.730;10.294;2023-08-12T12:43:14;5.47;;;4.63;;
19231;SDS011;9750;48.730;10.294;2023-08-12T12:45:41;4.95;;;4.43;;
19231;SDS011;9750;48.730;10.294;2023-08-12T12:48:08;4.55;;;4.00;;
19231;SDS011;9750;48.730;10.294;2023-08-12T12:50:36;5.90;;;3.90;;
19231;SDS011;9750;48.730;10.294;2023-08-12T12:53:03;7.45;;;4.15;;
19231;SDS011;9750;48.730;10.294;2023-08-12T12:55:32;6.25;;;3.65;;
19231;SDS011;9750;48.730;10.294;2023-08-12T12:57:59;4.30;;;3.90;;
19231;SDS011;9750;48.730;10.294;2023-08-12T13:00:26;7.28;;;3.60;;
19231;SDS011;9750;48.730;10.294;2023-08-12T13:02:54;4.25;;;3.60;;
19231;SDS011;9750;48.730;10.294;2023-08-12T13:05:21;5.28;;;3.90;;
19231;SDS011;9750;48.730;10.294;2023-08-12T13:07:48;4.78;;;3.63;;
19231;SDS011;9750;48.730;10.294;2023-08-12T13:10:15;5.13;;;3.63;;
19231;SDS011;9750;48.730;10.294;2023-08-12T13:12:44;5.13;;;3.60;;
19231;SDS011;9750;48.730;10.294;2023-08-12T13:15:11;5.50;;;3.75;;
19231;SDS011;9750;48.730;10.294;2023-08-12T13:17:38;4.72;;;3.80;;
19231;SDS011;9750;48.730;10.294;2023-08-12T13:20:07;6.57;;;3.90;;
19231;SDS011;9750;48.730;10.294;2023-08-12T13:22:35;6.53;;;3.80;;
19231;SDS011;9750;48.730;10.294;2023-08-12T13:25:02;4.72;;;3.70;;
19231;SDS011;9750;48.730;10.294;2023-08-12T13:30:53;6.45;;;4.13;;
19231;SDS011;9750;48.730;10.294;2023-08-12T13:33:20;8.70;;;3.47;;
19231;SDS011;9750;48.730;10.294;2023-08-12T13:35:47;5.13;;;3.88;;
19231;SDS011;9750;48.730;10.294;2023-08-12T13:38:15;7.03;;;3.97;;
19231;SDS011;9750;48.730;10.294;2023-08-12T13:40:42;5.70;;;4.00;;
19231;SDS011;9750;48.730;10.294;2023-08-12T13:43:09;7.80;;;3.78;;
19231;SDS011;9750;48.730;10.294;2023-08-12T13:45:36;4.70;;;3.75;;
19231;SDS011;9750;48.730;10.294;2023-08-12T13:51:27;4.13;;;3.08;;
19231;SDS011;9750;48.730;10.294;2023-08-12T13:53:54;4.25;;;2.58;;
19231;SDS011;9750;48.730;10.294;2023-08-12T13:56:22;3.30;;;2.60;;
19231;SDS011;9750;48.730;10.294;2023-08-12T13:58:49;3.20;;;2.53;;
19231;SDS011;9750;48.730;10.294;2023-08-12T14:01:16;2.85;;;2.40;;
19231;SDS011;9750;48.730;10.294;2023-08-12T14:03:46;4.97;;;3.03;;
19231;SDS011;9750;48.730;10.294;2023-08-12T14:06:14;3.42;;;2.85;;
19231;SDS011;9750;48.730;10.294;2023-08-12T14:08:42;3.10;;;2.80;;
19231;SDS011;9750;48.730;10.294;2023-08-12T14:11:10;4.20;;;3.30;;
19231;SDS011;9750;48.730;10.294;2023-08-12T14:13:40;3.83;;;3.05;;
19231;SDS011;9750;48.730;10.294;2023-08-12T14:16:09;4.28;;;2.92;;
19231;SDS011;9750;48.730;10.294;2023-08-12T14:18:36;3.75;;;2.70;;
19231;SDS011;9750;48.730;10.294;2023-08-12T14:21:03;4.53;;;2.90;;
19231;SDS011;9750;48.730;10.294;2023-08-12T14:23:31;4.22;;;3.17;;
19231;SDS011;9750;48.730;10.294;2023-08-12T14:26:01;4.55;;;2.97;;
19231;SDS011;9750;48.730;10.294;2023-08-12T14:28:28;4.47;;;2.88;;
19231;SDS011;9750;48.730;10.294;2023-08-12T14:30:58;5.38;;;3.47;;
19231;SDS011;9750;48.730;10.294;2023-08-12T14:33:29;4.40;;;3.30;;
19231;SDS011;9750;48.730;10.294;2023-08-12T14:35:57;5.22;;;3.35;;
19231;SDS011;9750;48.730;10.294;2023-08-12T14:38:24;4.25;;;3.22;;
19231;SDS011;9750;48.730;10.294;2023-08-12T14:40:51;3.08;;;2.78;;
19231;SDS011;9750;48.730;10.294;2023-08-12T14:43:20;4.60;;;3.47;;
19231;SDS011;9750;48.730;10.294;2023-08-12T14:45:48;4.57;;;2.95;;
19231;SDS011;9750;48.730;10.294;2023-08-12T14:48:15;4.97;;;3.20;;
19231;SDS011;9750;48.730;10.294;2023-08-12T14:50:43;3.72;;;3.30;;
19231;SDS011;9750;48.730;10.294;2023-08-12T14:53:10;5.63;;;3.42;;
19231;SDS011;9750;48.730;10.294;2023-08-12T14:55:38;4.72;;;3.58;;
19231;SDS011;9750;48.730;10.294;2023-08-12T14:58:05;3.97;;;2.90;;
19231;SDS011;9750;48.730;10.294;2023-08-12T15:00:34;3.50;;;3.20;;
19231;SDS011;9750;48.730;10.294;2023-08-12T15:03:01;4.68;;;3.10;;
19231;SDS011;9750;48.730;10.294;2023-08-12T15:05:28;3.58;;;3.25;;
19231;SDS011;9750;48.730;10.294;2023-08-12T15:07:56;3.78;;;3.47;;
19231;SDS011;9750;48.730;10.294;2023-08-12T15:10:23;4.40;;;3.60;;
19231;SDS011;9750;48.730;10.294;2023-08-12T15:12:50;4.70;;;3.45;;
19231;SDS011;9750;48.730;10.294;2023-08-12T15:15:17;3.65;;;3.33;;
19231;SDS011;9750;48.730;10.294;2023-08-12T15:21:08;3.80;;;3.28;;
19231;SDS011;9750;48.730;10.294;2023-08-12T15:23:35;3.90;;;3.60;;
19231;SDS011;9750;48.730;10.294;2023-08-12T15:26:03;4.53;;;3.85;;
19231;SDS011;9750;48.730;10.294;2023-08-12T15:28:30;4.50;;;3.45;;
19231;SDS011;9750;48.730;10.294;2023-08-12T15:30:58;5.28;;;3.63;;
19231;SDS011;9750;48.730;10.294;2023-08-12T15:33:25;3.97;;;3.45;;